sensor_id;sensor_type;location;lat;lon;timestamp;pressure;altitude;pressure_sealevel;temperature;humidity
35151;BME280;55720;51.972;4.624;2023-02-18T00:01:17;101928.94;;;8.97;100.00
35151;BME280;55720;51.972;4.624;2023-02-18T00:03:43;101928.09;;;8.96;100.00
35151;BME280;55720;51.972;4.624;2023-02-18T00:06:14;101931.72;;;8.92;100.00
35151;BME280;55720;51.972;4.624;2023-02-18T00:08:41;101949.03;;;8.87;100.00
35151;BME280;55720;51.972;4.624;2023-02-18T00:11:07;101964.97;;;8.85;100.00
35151;BME280;55720;51.972;4.624;2023-02-18T00:13:33;101963.41;;;8.79;100.00
35151;BME280;55720;51.972;4.624;2023-02-18T00:16:03;101973.81;;;8.77;100.00
35151;BME280;55720;51.972;4.624;2023-02-18T00:18:29;101980.47;;;8.71;100.00
35151;BME280;55720;51.972;4.624;2023-02-18T00:20:54;101997.13;;;8.74;100.00
35151;BME280;55720;51.972;4.624;2023-02-18T00:23:20;101995.53;;;8.68;100.00
35151;BME280;55720;51.972;4.624;2023-02-18T00:25:45;102003.00;;;8.63;100.00
35151;BME280;55720;51.972;4.624;2023-02-18T00:28:10;101998.59;;;8.67;100.00
35151;BME280;55720;51.972;4.624;2023-02-18T00:30:39;102032.84;;;8.64;100.00
35151;BME280;55720;51.972;4.624;2023-02-18T00:33:25;102036.09;;;8.66;100.00
35151;BME280;55720;51.972;4.624;2023-02-18T00:35:51;102032.31;;;8.62;100.00
35151;BME280;55720;51.972;4.624;2023-02-18T00:38:16;102026.00;;;8.62;100.00
35151;BME280;55720;51.972;4.624;2023-02-18T00:40:42;102048.44;;;8.64;100.00
35151;BME280;55720;51.972;4.624;2023-02-18T00:43:08;102054.69;;;8.69;100.00
35151;BME280;55720;51.972;4.624;2023-02-18T00:45:34;102061.25;;;8.68;100.00
35151;BME280;55720;51.972;4.624;2023-02-18T00:47:59;102079.03;;;8.71;100.00
35151;BME280;55720;51.972;4.624;2023-02-18T00:50:25;102089.16;;;8.70;100.00
35151;BME280;55720;51.972;4.624;2023-02-18T00:52:50;102027.84;;;8.71;100.00
35151;BME280;55720;51.972;4.624;2023-02-18T00:55:15;102040.13;;;8.74;100.00
35151;BME280;55720;51.972;4.624;2023-02-18T00:57:41;102038.78;;;8.71;100.00
35151;BME280;55720;51.972;4.624;2023-02-18T01:00:07;102054.91;;;8.73;100.00
35151;BME280;55720;51.972;4.624;2023-02-18T01:02:32;102063.09;;;8.78;100.00
35151;BME280;55720;51.972;4.624;2023-02-18T01:04:58;102058.44;;;8.78;100.00
35151;BME280;55720;51.972;4.624;2023-02-18T01:07:23;102081.16;;;8.79;100.00
35151;BME280;55720;51.972;4.624;2023-02-18T01:09:49;102061.41;;;8.82;100.00
35151;BME280;55720;51.972;4.624;2023-02-18T01:12:15;102079.16;;;8.84;100.00
35151;BME280;55720;51.972;4.624;2023-02-18T01:14:40;102096.94;;;8.87;100.00
35151;BME280;55720;51.972;4.624;2023-02-18T01:17:05;102115.59;;;8.85;100.00
35151;BME280;55720;51.972;4.624;2023-02-18T01:19:31;102139.06;;;8.91;100.00
35151;BME280;55720;51.972;4.624;2023-02-18T01:21:56;102137.72;;;8.88;100.00
35151;BME280;55720;51.972;4.624;2023-02-18T01:24:21;102151.09;;;8.95;100.00
35151;BME280;55720;51.972;4.624;2023-02-18T01:26:47;102151.59;;;8.97;100.00
35151;BME280;55720;51.972;4.624;2023-02-18T01:29:12;102163.69;;;8.96;100.00
35151;BME280;55720;51.972;4.624;2023-02-18T01:31:38;102170.50;;;8.99;100.00
35151;BME280;55720;51.972;4.624;2023-02-18T01:34:03;102179.25;;;9.01;100.00
35151;BME280;55720;51.972;4.624;2023-02-18T01:36:29;102196.78;;;9.00;100.00
35151;BME280;55720;51.972;4.624;2023-02-18T01:38:54;102209.38;;;9.01;100.00
35151;BME280;55720;51.972;4.624;2023-02-18T01:41:19;102215.91;;;9.05;100.00
35151;BME280;55720;51.972;4.624;2023-02-18T01:43:45;102229.91;;;9.03;100.00
35151;BME280;55720;51.972;4.624;2023-02-18T01:46:17;102223.03;;;9.06;100.00
35151;BME280;55720;51.972;4.624;2023-02-18T01:51:19;102227.41;;;9.07;100.00
35151;BME280;55720;51.972;4.624;2023-02-18T01:56:21;102246.00;;;9.10;100.00
35151;BME280;55720;51.972;4.624;2023-02-18T02:01:24;102280.19;;;9.17;100.00
35151;BME280;55720;51.972;4.624;2023-02-18T02:03:50;102281.84;;;9.18;100.00
35151;BME280;55720;51.972;4.624;2023-02-18T02:06:19;102295.22;;;9.20;100.00
35151;BME280;55720;51.972;4.624;2023-02-18T02:08:47;102299.88;;;9.19;100.00
35151;BME280;55720;51.972;4.624;2023-02-18T02:11:40;102311.63;;;9.25;100.00
35151;BME280;55720;51.972;4.624;2023-02-18T02:17:07;102312.13;;;9.32;100.00
35151;BME280;55720;51.972;4.624;2023-02-18T02:33:55;102317.50;;;9.13;100.00
35151;BME280;55720;51.972;4.624;2023-02-18T02:37:07;102318.31;;;9.14;100.00
35151;BME280;55720;51.972;4.624;2023-02-18T02:45:59;102326.31;;;9.05;100.00
35151;BME280;55720;51.972;4.624;2023-02-18T02:48:12;102335.94;;;9.03;100.00
35151;BME280;55720;51.972;4.624;2023-02-18T02:53:19;102323.09;;;8.98;100.00
35151;BME280;55720;51.972;4.624;2023-02-18T02:56:03;102369.72;;;8.93;100.00
35151;BME280;55720;51.972;4.624;2023-02-18T02:58:28;102376.81;;;8.94;100.00
35151;BME280;55720;51.972;4.624;2023-02-18T03:09:22;102437.94;;;8.89;100.00
35151;BME280;55720;51.972;4.624;2023-02-18T03:14:56;102450.50;;;8.96;100.00
35151;BME280;55720;51.972;4.624;2023-02-18T03:17:26;102453.75;;;8.98;100.00
35151;BME280;55720;51.972;4.624;2023-02-18T03:20:02;102470.19;;;8.98;100.00
35151;BME280;55720;51.972;4.624;2023-02-18T03:22:35;102475.94;;;9.01;100.00
35151;BME280;55720;51.972;4.624;2023-02-18T03:25:03;102484.16;;;9.01;100.00
35151;BME280;55720;51.972;4.624;2023-02-18T03:27:37;102479.22;;;9.03;100.00
35151;BME280;55720;51.972;4.624;2023-02-18T03:30:12;102466.03;;;9.05;100.00
35151;BME280;55720;51.972;4.624;2023-02-18T03:32:40;102464.13;;;9.06;100.00
35151;BME280;55720;51.972;4.624;2023-02-18T03:35:12;102453.16;;;9.06;100.00
35151;BME280;55720;51.972;4.624;2023-02-18T03:37:44;102463.03;;;9.07;100.00
35151;BME280;55720;51.972;4.624;2023-02-18T03:40:11;102461.63;;;9.09;100.00
35151;BME280;55720;51.972;4.624;2023-02-18T03:42:37;102390.16;;;9.06;100.00
35151;BME280;55720;51.972;4.624;2023-02-18T03:45:03;102460.00;;;9.08;100.00
35151;BME280;55720;51.972;4.624;2023-02-18T03:47:29;102480.81;;;9.09;100.00
35151;BME280;55720;51.972;4.624;2023-02-18T03:49:54;102474.81;;;9.07;100.00
35151;BME280;55720;51.972;4.624;2023-02-18T03:52:20;102480.31;;;9.07;100.00
35151;BME280;55720;51.972;4.624;2023-02-18T03:54:45;102482.22;;;9.07;100.00
35151;BME280;55720;51.972;4.624;2023-02-18T03:57:11;102469.59;;;9.06;100.00
35151;BME280;55720;51.972;4.624;2023-02-18T03:59:36;102455.38;;;9.04;100.00
35151;BME280;55720;51.972;4.624;2023-02-18T04:02:02;102450.19;;;9.02;100.00
35151;BME280;55720;51.972;4.624;2023-02-18T04:04:28;102459.75;;;9.05;100.00
35151;BME280;55720;51.972;4.624;2023-02-18T04:06:54;102458.41;;;9.02;100.00
35151;BME280;55720;51.972;4.624;2023-02-18T04:09:19;102454.56;;;9.03;100.00
35151;BME280;55720;51.972;4.624;2023-02-18T04:11:44;102469.09;;;9.04;100.00
35151;BME280;55720;51.972;4.624;2023-02-18T04:14:12;102465.53;;;9.03;100.00
35151;BME280;55720;51.972;4.624;2023-02-18T04:16:38;102455.38;;;9.04;100.00
35151;BME280;55720;51.972;4.624;2023-02-18T04:19:03;102457.00;;;9.05;100.00
35151;BME280;55720;51.972;4.624;2023-02-18T04:21:32;102458.38;;;9.07;100.00
35151;BME280;55720;51.972;4.624;2023-02-18T04:23:58;102459.72;;;9.10;100.00
35151;BME280;55720;51.972;4.624;2023-02-18T04:26:23;102450.41;;;9.11;100.00
35151;BME280;55720;51.972;4.624;2023-02-18T04:28:49;102419.44;;;9.10;100.00
35151;BME280;55720;51.972;4.624;2023-02-18T04:31:14;102434.22;;;9.14;100.00
35151;BME280;55720;51.972;4.624;2023-02-18T04:33:39;102431.19;;;9.16;100.00
35151;BME280;55720;51.972;4.624;2023-02-18T04:36:05;102426.81;;;9.15;100.00
35151;BME280;55720;51.972;4.624;2023-02-18T04:38:31;102417.47;;;9.16;100.00
35151;BME280;55720;51.972;4.624;2023-02-18T04:40:56;102408.16;;;9.17;100.00
35151;BME280;55720;51.972;4.624;2023-02-18T04:43:21;102407.88;;;9.18;100.00
35151;BME280;55720;51.972;4.624;2023-02-18T04:45:47;102391.69;;;9.22;100.00
35151;BME280;55720;51.972;4.624;2023-02-18T04:48:12;102374.44;;;9.21;100.00
35151;BME280;55720;51.972;4.624;2023-02-18T04:50:38;102369.78;;;9.22;100.00
35151;BME280;55720;51.972;4.624;2023-02-18T04:53:03;102360.16;;;9.24;100.00
35151;BME280;55720;51.972;4.624;2023-02-18T04:55:29;102355.19;;;9.26;100.00
35151;BME280;55720;51.972;4.624;2023-02-18T04:57:54;102356.84;;;9.27;100.00
35151;BME280;55720;51.972;4.624;2023-02-18T05:00:19;102351.66;;;9.26;100.00
35151;BME280;55720;51.972;4.624;2023-02-18T05:02:46;102348.59;;;9.27;100.00
35151;BME280;55720;51.972;4.624;2023-02-18T05:05:12;102346.97;;;9.26;100.00
35151;BME280;55720;51.972;4.624;2023-02-18T05:07:38;102354.41;;;9.26;100.00
35151;BME280;55720;51.972;4.624;2023-02-18T05:10:07;102348.91;;;9.26;100.00
35151;BME280;55720;51.972;4.624;2023-02-18T05:12:33;102365.63;;;9.24;100.00
35151;BME280;55720;51.972;4.624;2023-02-18T05:14:58;102355.75;;;9.23;100.00
35151;BME280;55720;51.972;4.624;2023-02-18T05:17:24;102354.94;;;9.23;100.00
35151;BME280;55720;51.972;4.624;2023-02-18T05:19:49;102342.38;;;9.22;100.00
35151;BME280;55720;51.972;4.624;2023-02-18T05:22:14;102347.03;;;9.21;100.00
35151;BME280;55720;51.972;4.624;2023-02-18T05:24:40;102342.38;;;9.22;100.00
35151;BME280;55720;51.972;4.624;2023-02-18T05:27:05;102344.81;;;9.23;100.00
35151;BME280;55720;51.972;4.624;2023-02-18T05:29:31;102325.84;;;9.27;100.00
35151;BME280;55720;51.972;4.624;2023-02-18T05:31:56;102336.78;;;9.32;100.00
35151;BME280;55720;51.972;4.624;2023-02-18T05:34:24;102326.09;;;9.30;100.00
35151;BME280;55720;51.972;4.624;2023-02-18T05:36:50;102321.19;;;9.27;100.00
35151;BME280;55720;51.972;4.624;2023-02-18T05:39:15;102320.63;;;9.30;100.00
35151;BME280;55720;51.972;4.624;2023-02-18T05:41:41;102333.22;;;9.31;100.00
35151;BME280;55720;51.972;4.624;2023-02-18T05:44:06;102322.78;;;9.33;100.00
35151;BME280;55720;51.972;4.624;2023-02-18T05:46:50;102332.66;;;9.34;100.00
35151;BME280;55720;51.972;4.624;2023-02-18T05:49:15;102329.09;;;9.34;100.00
35151;BME280;55720;51.972;4.624;2023-02-18T05:51:41;102344.16;;;9.36;100.00
35151;BME280;55720;51.972;4.624;2023-02-18T05:54:06;102351.25;;;9.37;100.00
35151;BME280;55720;51.972;4.624;2023-02-18T05:56:31;102341.69;;;9.35;100.00
35151;BME280;55720;51.972;4.624;2023-02-18T05:58:57;102330.22;;;9.33;100.00
35151;BME280;55720;51.972;4.624;2023-02-18T06:01:22;102338.97;;;9.30;100.00
35151;BME280;55720;51.972;4.624;2023-02-18T06:03:47;102349.69;;;9.26;100.00
35151;BME280;55720;51.972;4.624;2023-02-18T06:06:13;102346.41;;;9.29;100.00
35151;BME280;55720;51.972;4.624;2023-02-18T06:08:38;102334.91;;;9.27;100.00
35151;BME280;55720;51.972;4.624;2023-02-18T06:11:04;102348.03;;;9.30;100.00
35151;BME280;55720;51.972;4.624;2023-02-18T06:13:29;102344.19;;;9.31;100.00
35151;BME280;55720;51.972;4.624;2023-02-18T06:15:54;102341.97;;;9.33;100.00
35151;BME280;55720;51.972;4.624;2023-02-18T06:18:20;102367.47;;;9.34;100.00
35151;BME280;55720;51.972;4.624;2023-02-18T06:20:47;102346.59;;;9.38;100.00
35151;BME280;55720;51.972;4.624;2023-02-18T06:23:13;102359.47;;;9.37;100.00
35151;BME280;55720;51.972;4.624;2023-02-18T06:25:38;102353.41;;;9.40;100.00
35151;BME280;55720;51.972;4.624;2023-02-18T06:28:04;102380.56;;;9.42;100.00
35151;BME280;55720;51.972;4.624;2023-02-18T06:30:29;102400.03;;;9.40;100.00
35151;BME280;55720;51.972;4.624;2023-02-18T06:32:54;102403.59;;;9.41;100.00
35151;BME280;55720;51.972;4.624;2023-02-18T06:35:20;102402.75;;;9.40;100.00
35151;BME280;55720;51.972;4.624;2023-02-18T06:37:45;102418.94;;;9.42;100.00
35151;BME280;55720;51.972;4.624;2023-02-18T06:40:12;102412.34;;;9.43;100.00
35151;BME280;55720;51.972;4.624;2023-02-18T06:42:37;102423.03;;;9.45;100.00
35151;BME280;55720;51.972;4.624;2023-02-18T06:45:03;102410.44;;;9.44;100.00
35151;BME280;55720;51.972;4.624;2023-02-18T06:47:31;102410.97;;;9.40;100.00
35151;BME280;55720;51.972;4.624;2023-02-18T06:49:56;102391.78;;;9.40;100.00
35151;BME280;55720;51.972;4.624;2023-02-18T06:52:21;102386.06;;;9.37;100.00
35151;BME280;55720;51.972;4.624;2023-02-18T06:54:47;102374.59;;;9.35;100.00
35151;BME280;55720;51.972;4.624;2023-02-18T06:57:12;102378.97;;;9.36;100.00
35151;BME280;55720;51.972;4.624;2023-02-18T06:59:37;102380.34;;;9.33;100.00
35151;BME280;55720;51.972;4.624;2023-02-18T07:02:03;102378.19;;;9.30;100.00
35151;BME280;55720;51.972;4.624;2023-02-18T07:04:28;102374.34;;;9.31;100.00
35151;BME280;55720;51.972;4.624;2023-02-18T07:06:54;102361.72;;;9.30;100.00
35151;BME280;55720;51.972;4.624;2023-02-18T07:09:19;102348.34;;;9.29;100.00
35151;BME280;55720;51.972;4.624;2023-02-18T07:11:45;102319.56;;;9.26;100.00
35151;BME280;55720;51.972;4.624;2023-02-18T07:14:10;102294.88;;;9.26;100.00
35151;BME280;55720;51.972;4.624;2023-02-18T07:16:35;102244.22;;;9.24;100.00
35151;BME280;55720;51.972;4.624;2023-02-18T07:19:01;102199.03;;;9.21;100.00
35151;BME280;55720;51.972;4.624;2023-02-18T07:21:26;102163.09;;;9.23;100.00
35151;BME280;55720;51.972;4.624;2023-02-18T07:23:52;102134.59;;;9.24;100.00
35151;BME280;55720;51.972;4.624;2023-02-18T07:26:17;102096.81;;;9.21;100.00
35151;BME280;55720;51.972;4.624;2023-02-18T07:28:42;102047.22;;;9.22;100.00
35151;BME280;55720;51.972;4.624;2023-02-18T07:31:08;102011.59;;;9.22;100.00
35151;BME280;55720;51.972;4.624;2023-02-18T07:33:33;101978.13;;;9.25;100.00
35151;BME280;55720;51.972;4.624;2023-02-18T07:36:00;101940.56;;;9.26;100.00
35151;BME280;55720;51.972;4.624;2023-02-18T07:38:27;101904.13;;;9.25;100.00
35151;BME280;55720;51.972;4.624;2023-02-18T07:40:54;101866.78;;;9.29;100.00
35151;BME280;55720;51.972;4.624;2023-02-18T07:43:20;101834.69;;;9.30;100.00
35151;BME280;55720;51.972;4.624;2023-02-18T07:45:45;101814.31;;;9.36;100.00
35151;BME280;55720;51.972;4.624;2023-02-18T07:48:11;101788.53;;;9.37;100.00
35151;BME280;55720;51.972;4.624;2023-02-18T07:50:41;101760.22;;;9.42;100.00
35151;BME280;55720;51.972;4.624;2023-02-18T07:53:09;101731.38;;;9.44;100.00
35151;BME280;55720;51.972;4.624;2023-02-18T07:55:35;101694.63;;;9.45;100.00
35151;BME280;55720;51.972;4.624;2023-02-18T07:58:21;101637.59;;;9.47;100.00
35151;BME280;55720;51.972;4.624;2023-02-18T08:00:47;101601.16;;;9.47;100.00
35151;BME280;55720;51.972;4.624;2023-02-18T08:03:17;101572.09;;;9.46;100.00
35151;BME280;55720;51.972;4.624;2023-02-18T08:05:43;101532.72;;;9.42;100.00
35151;BME280;55720;51.972;4.624;2023-02-18T08:08:21;101496.41;;;9.36;100.00
35151;BME280;55720;51.972;4.624;2023-02-18T08:10:48;101458.94;;;9.31;100.00
35151;BME280;55720;51.972;4.624;2023-02-18T08:13:13;101433.81;;;9.29;100.00
35151;BME280;55720;51.972;4.624;2023-02-18T08:15:39;101392.19;;;9.27;100.00
35151;BME280;55720;51.972;4.624;2023-02-18T08:18:06;101361.13;;;9.32;100.00
35151;BME280;55720;51.972;4.624;2023-02-18T08:20:36;101344.03;;;9.35;100.00
35151;BME280;55720;51.972;4.624;2023-02-18T08:23:03;101311.28;;;9.30;100.00
35151;BME280;55720;51.972;4.624;2023-02-18T08:25:28;101304.94;;;9.21;100.00
35151;BME280;55720;51.972;4.624;2023-02-18T08:27:54;101305.88;;;9.16;100.00
35151;BME280;55720;51.972;4.624;2023-02-18T08:30:19;101294.47;;;9.23;100.00
35151;BME280;55720;51.972;4.624;2023-02-18T08:32:45;101289.97;;;9.27;100.00
35151;BME280;55720;51.972;4.624;2023-02-18T08:35:12;101276.28;;;9.27;100.00
35151;BME280;55720;51.972;4.624;2023-02-18T08:37:38;101277.72;;;9.24;100.00
35151;BME280;55720;51.972;4.624;2023-02-18T08:40:04;101266.28;;;9.22;100.00
35151;BME280;55720;51.972;4.624;2023-02-18T08:42:30;101236.94;;;9.23;100.00
35151;BME280;55720;51.972;4.624;2023-02-18T08:44:55;101199.75;;;9.30;100.00
35151;BME280;55720;51.972;4.624;2023-02-18T08:47:21;101185.28;;;9.38;100.00
35151;BME280;55720;51.972;4.624;2023-02-18T08:49:46;101185.94;;;9.44;100.00
35151;BME280;55720;51.972;4.624;2023-02-18T08:52:11;101160.50;;;9.52;100.00
35151;BME280;55720;51.972;4.624;2023-02-18T08:54:37;101139.09;;;9.63;100.00
35151;BME280;55720;51.972;4.624;2023-02-18T08:57:02;101141.00;;;9.62;100.00
35151;BME280;55720;51.972;4.624;2023-02-18T08:59:28;101127.31;;;9.62;100.00
35151;BME280;55720;51.972;4.624;2023-02-18T09:01:53;101109.25;;;9.70;100.00
35151;BME280;55720;51.972;4.624;2023-02-18T09:04:18;101100.44;;;9.90;100.00
35151;BME280;55720;51.972;4.624;2023-02-18T09:06:46;101081.69;;;9.92;100.00
35151;BME280;55720;51.972;4.624;2023-02-18T09:09:11;101075.25;;;9.79;100.00
35151;BME280;55720;51.972;4.624;2023-02-18T09:11:36;101058.97;;;9.83;100.00
35151;BME280;55720;51.972;4.624;2023-02-18T09:14:02;101059.44;;;9.76;100.00
35151;BME280;55720;51.972;4.624;2023-02-18T09:16:27;101071.19;;;9.77;100.00
35151;BME280;55720;51.972;4.624;2023-02-18T09:18:54;101047.34;;;9.77;100.00
35151;BME280;55720;51.972;4.624;2023-02-18T09:21:21;101054.28;;;9.83;100.00
35151;BME280;55720;51.972;4.624;2023-02-18T09:23:48;101039.63;;;9.79;100.00
35151;BME280;55720;51.972;4.624;2023-02-18T09:26:15;101037.53;;;9.76;100.00
35151;BME280;55720;51.972;4.624;2023-02-18T09:28:41;101044.09;;;9.84;100.00
35151;BME280;55720;51.972;4.624;2023-02-18T09:31:09;101045.75;;;9.76;100.00
35151;BME280;55720;51.972;4.624;2023-02-18T09:33:37;101034.59;;;9.81;100.00
35151;BME280;55720;51.972;4.624;2023-02-18T09:36:03;101050.56;;;9.88;100.00
35151;BME280;55720;51.972;4.624;2023-02-18T09:38:29;101049.94;;;9.91;100.00
35151;BME280;55720;51.972;4.624;2023-02-18T09:40:56;101062.84;;;9.91;100.00
35151;BME280;55720;51.972;4.624;2023-02-18T09:43:42;101056.03;;;9.88;100.00
35151;BME280;55720;51.972;4.624;2023-02-18T09:48:50;101059.59;;;9.88;100.00
35151;BME280;55720;51.972;4.624;2023-02-18T09:51:17;101066.41;;;9.91;100.00
35151;BME280;55720;51.972;4.624;2023-02-18T09:53:44;101063.16;;;9.98;100.00
35151;BME280;55720;51.972;4.624;2023-02-18T09:56:16;101052.00;;;10.03;100.00
35151;BME280;55720;51.972;4.624;2023-02-18T09:58:46;101041.34;;;10.10;100.00
35151;BME280;55720;51.972;4.624;2023-02-18T10:03:51;101058.31;;;10.12;100.00
35151;BME280;55720;51.972;4.624;2023-02-18T10:06:21;101057.19;;;10.13;100.00
35151;BME280;55720;51.972;4.624;2023-02-18T10:08:49;101064.47;;;10.17;100.00
35151;BME280;55720;51.972;4.624;2023-02-18T10:11:41;101069.00;;;10.30;100.00
35151;BME280;55720;51.972;4.624;2023-02-18T10:14:12;101053.50;;;10.26;100.00
35151;BME280;55720;51.972;4.624;2023-02-18T10:16:38;101059.59;;;10.31;100.00
35151;BME280;55720;51.972;4.624;2023-02-18T10:19:52;101065.59;;;10.33;100.00
35151;BME280;55720;51.972;4.624;2023-02-18T10:21:53;101068.81;;;10.44;100.00
35151;BME280;55720;51.972;4.624;2023-02-18T10:24:42;101072.00;;;10.46;100.00
35151;BME280;55720;51.972;4.624;2023-02-18T10:27:09;101083.81;;;10.47;100.00
35151;BME280;55720;51.972;4.624;2023-02-18T10:29:38;101082.53;;;10.44;100.00
35151;BME280;55720;51.972;4.624;2023-02-18T10:32:30;101070.88;;;10.56;100.00
35151;BME280;55720;51.972;4.624;2023-02-18T10:37:55;101093.47;;;10.53;100.00
35151;BME280;55720;51.972;4.624;2023-02-18T10:40:34;101079.28;;;10.51;100.00
35151;BME280;55720;51.972;4.624;2023-02-18T10:43:15;101098.81;;;10.49;100.00
35151;BME280;55720;51.972;4.624;2023-02-18T10:48:39;101094.59;;;10.69;100.00
35151;BME280;55720;51.972;4.624;2023-02-18T10:51:17;101098.28;;;10.81;100.00
35151;BME280;55720;51.972;4.624;2023-02-18T10:53:44;101083.84;;;10.93;100.00
35151;BME280;55720;51.972;4.624;2023-02-18T10:56:37;101095.19;;;10.92;100.00
35151;BME280;55720;51.972;4.624;2023-02-18T10:59:10;101075.91;;;11.00;100.00
35151;BME280;55720;51.972;4.624;2023-02-18T11:01:37;101074.88;;;11.13;100.00
35151;BME280;55720;51.972;4.624;2023-02-18T11:04:12;101086.84;;;11.17;100.00
35151;BME280;55720;51.972;4.624;2023-02-18T11:07:01;101097.03;;;11.17;100.00
35151;BME280;55720;51.972;4.624;2023-02-18T11:09:39;101098.84;;;11.04;100.00
35151;BME280;55720;51.972;4.624;2023-02-18T11:12:19;101089.31;;;11.02;100.00
35151;BME280;55720;51.972;4.624;2023-02-18T11:14:48;101082.34;;;11.04;100.00
35151;BME280;55720;51.972;4.624;2023-02-18T11:17:25;101092.69;;;11.07;100.00
35151;BME280;55720;51.972;4.624;2023-02-18T11:19:53;101093.47;;;11.08;100.00
35151;BME280;55720;51.972;4.624;2023-02-18T11:22:25;101087.31;;;11.19;100.00
35151;BME280;55720;51.972;4.624;2023-02-18T11:24:57;101108.34;;;11.15;100.00
35151;BME280;55720;51.972;4.624;2023-02-18T11:27:48;101095.84;;;11.26;100.00
35151;BME280;55720;51.972;4.624;2023-02-18T11:30:33;101092.47;;;11.21;100.00
35151;BME280;55720;51.972;4.624;2023-02-18T11:33:05;101095.31;;;11.33;100.00
35151;BME280;55720;51.972;4.624;2023-02-18T11:35:32;101088.81;;;11.38;100.00
35151;BME280;55720;51.972;4.624;2023-02-18T11:38:42;101095.66;;;11.31;100.00
35151;BME280;55720;51.972;4.624;2023-02-18T11:43:33;101097.63;;;11.22;100.00
35151;BME280;55720;51.972;4.624;2023-02-18T11:46:15;101100.22;;;11.27;100.00
35151;BME280;55720;51.972;4.624;2023-02-18T11:48:41;101099.41;;;11.18;100.00
35151;BME280;55720;51.972;4.624;2023-02-18T11:54:28;101097.59;;;11.31;100.00
35151;BME280;55720;51.972;4.624;2023-02-18T11:57:04;101099.28;;;11.44;100.00
35151;BME280;55720;51.972;4.624;2023-02-18T11:59:35;101101.16;;;11.31;100.00
35151;BME280;55720;51.972;4.624;2023-02-18T12:02:21;101102.16;;;11.27;100.00
35151;BME280;55720;51.972;4.624;2023-02-18T12:04:57;101093.47;;;11.46;100.00
35151;BME280;55720;51.972;4.624;2023-02-18T12:21:05;101094.22;;;11.84;100.00
35151;BME280;55720;51.972;4.624;2023-02-18T12:26:28;101082.84;;;12.15;100.00
35151;BME280;55720;51.972;4.624;2023-02-18T12:31:48;101093.81;;;12.68;100.00
35151;BME280;55720;51.972;4.624;2023-02-18T12:34:45;101113.16;;;12.48;100.00
35151;BME280;55720;51.972;4.624;2023-02-18T12:37:39;101105.09;;;12.43;100.00
35151;BME280;55720;51.972;4.624;2023-02-18T12:53:44;101124.84;;;12.03;100.00
35151;BME280;55720;51.972;4.624;2023-02-18T12:59:12;101107.03;;;12.42;100.00
35151;BME280;55720;51.972;4.624;2023-02-18T13:13:12;101109.88;;;12.13;100.00
35151;BME280;55720;51.972;4.624;2023-02-18T13:15:47;101113.28;;;12.30;100.00
35151;BME280;55720;51.972;4.624;2023-02-18T13:18:29;101111.06;;;12.24;100.00
35151;BME280;55720;51.972;4.624;2023-02-18T13:21:00;101114.63;;;12.24;100.00
35151;BME280;55720;51.972;4.624;2023-02-18T13:23:42;101119.16;;;12.29;100.00
35151;BME280;55720;51.972;4.624;2023-02-18T13:26:12;101117.94;;;12.18;100.00
35151;BME280;55720;51.972;4.624;2023-02-18T13:34:31;101106.50;;;12.28;100.00
35151;BME280;55720;51.972;4.624;2023-02-18T13:39:37;101108.16;;;12.41;100.00
35151;BME280;55720;51.972;4.624;2023-02-18T13:47:44;101119.41;;;12.69;100.00
35151;BME280;55720;51.972;4.624;2023-02-18T13:50:24;101123.31;;;12.68;100.00
35151;BME280;55720;51.972;4.624;2023-02-18T13:55:50;101125.44;;;12.95;100.00
35151;BME280;55720;51.972;4.624;2023-02-18T13:58:27;101131.88;;;12.87;100.00
35151;BME280;55720;51.972;4.624;2023-02-18T14:01:03;101141.34;;;13.10;100.00
35151;BME280;55720;51.972;4.624;2023-02-18T14:05:55;101163.19;;;12.82;100.00
35151;BME280;55720;51.972;4.624;2023-02-18T14:08:39;101153.34;;;12.94;100.00
35151;BME280;55720;51.972;4.624;2023-02-18T14:13:54;101159.56;;;12.70;100.00
35151;BME280;55720;51.972;4.624;2023-02-18T14:22:43;101149.81;;;12.40;100.00
35151;BME280;55720;51.972;4.624;2023-02-18T14:27:34;101145.13;;;12.40;100.00
35151;BME280;55720;51.972;4.624;2023-02-18T14:30:07;101138.00;;;12.39;100.00
35151;BME280;55720;51.972;4.624;2023-02-18T14:32:40;101146.28;;;12.18;100.00
35151;BME280;55720;51.972;4.624;2023-02-18T14:35:34;101152.38;;;12.03;100.00
35151;BME280;55720;51.972;4.624;2023-02-18T14:40:57;101138.63;;;12.03;100.00
35151;BME280;55720;51.972;4.624;2023-02-18T14:46:24;101140.16;;;11.92;100.00
35151;BME280;55720;51.972;4.624;2023-02-18T14:51:28;101126.34;;;12.01;100.00
35151;BME280;55720;51.972;4.624;2023-02-18T14:53:55;101122.09;;;12.03;100.00
35151;BME280;55720;51.972;4.624;2023-02-18T14:56:26;101121.69;;;11.93;100.00
35151;BME280;55720;51.972;4.624;2023-02-18T14:59:01;101125.75;;;11.87;100.00
35151;BME280;55720;51.972;4.624;2023-02-18T15:01:33;101131.78;;;11.80;100.00
35151;BME280;55720;51.972;4.624;2023-02-18T15:04:00;101132.47;;;11.68;100.00
35151;BME280;55720;51.972;4.624;2023-02-18T15:06:36;101118.25;;;11.75;100.00
35151;BME280;55720;51.972;4.624;2023-02-18T15:09:19;101123.91;;;11.78;100.00
35151;BME280;55720;51.972;4.624;2023-02-18T15:14:31;101116.25;;;11.84;100.00
35151;BME280;55720;51.972;4.624;2023-02-18T15:16:58;101116.25;;;11.84;100.00
35151;BME280;55720;51.972;4.624;2023-02-18T15:19:26;101123.09;;;11.69;100.00
35151;BME280;55720;51.972;4.624;2023-02-18T15:21:55;101127.38;;;11.58;100.00
35151;BME280;55720;51.972;4.624;2023-02-18T15:24:32;101115.47;;;11.46;100.00
35151;BME280;55720;51.972;4.624;2023-02-18T15:27:01;101112.88;;;11.49;100.00
35151;BME280;55720;51.972;4.624;2023-02-18T15:29:30;101101.44;;;11.39;100.00